Красный Партизан

Карта отелей и гостиниц, располагающихся рядом с аэропортом Красный Партизан :

Красный Партизан Чувашия 55° 20' 23.3988" N, 47° 16' 12.4212" E
Код аэродрома ИКАО
ZB19
Код аэродрома RU
ЗБ19
Координаты
N55.33983° E047.27012°
Превышение над уровнем моря
128
Основная полоса
36/18
Курс магнитный
003,6/183,6
Длина основной ВПП
720
Ширина основной ВПП
20
Покрытие основной ВПП
Твёрдое (асфальт)
Освещение ВПП
Нет
Тип: 
Аэродром
Класс аэродрома: 
Принадлежность: 
АОН
Статус: 
Действующий
Сайт: 
E-mail аэродрома: 
Страна: 
Россия
Регион: 
Чувашия
Город: 
Дополнительная информация: 
Бывшая площадка АХР. ИВПП комбинированная (асфальт 400м + грунт по 150м от торцов). Присутствует уклон вниз с МК=184°, асфальт в хорошем состоянии. ПП публичная, стоянка охраняемая, прилёт без согласования.

Найти трансфер

С помощью этой формы Вы можете найти трансфер из аэропорта Красный Партизан в город, аэропорт или вокзал:

Карта места

Javascript is required to view this map.

Погода в аэропортах:

Авиационная погода в Вардё

Регион: 
Погода METAR: 
ENSS 161920Z 26018KT 9999 -RA FEW026 SCT043 03/01 Q1025 RMK WIND 500FT 27031KT
Время наблюдения
2021-04-16T19:20:00Z
Температура C
3.0
Точка росы
1.0
Направление ветра
260
Скорость ветра (узлы)
18
Метео видимость
6.21
Явления погоды
-RA
Условия полета
VFR

Авиационная погода в Брянске

Регион: 
Погода METAR: 
UUBP 171630Z AUTO 23002MPS 6000 -RA ///007/// ///025/// 06/06 Q1016
Время наблюдения
2021-04-17T16:30:00Z
Температура C
6.0
Точка росы
6.0
Направление ветра
230
Скорость ветра (узлы)
4
Метео видимость
3.73
Явления погоды
-RA
Условия полета
Аэропорт подробнее: 

Авиационная погода в Сочи

Регион: 
Погода METAR: 
URSS 171630Z 08002MPS 6000 -SHRA SCT011 OVC040CB 12/10 Q1021 WS ALL RWY R06/290060 R02/290060 NOSIG RMK R02/06002MPS MT OBSC QFE764
Время наблюдения
2021-04-17T16:30:00Z
Температура C
12.0
Точка росы
10.0
Направление ветра
80
Скорость ветра (узлы)
4
Метео видимость
3.73
Явления погоды
-SHRA
Условия полета
MVFR
Аэропорт подробнее: 

Авиационная погода в Мирном

Регион: 
Погода METAR: 
UERR 171700Z 29005G10MPS 9999 DRSN NSC M15/M22 Q1002 R25/890340 NOSIG RMK QFE721/0961
Время наблюдения
2021-04-17T17:00:00Z
Температура C
-15.0
Точка росы
-22.0
Направление ветра
290
Скорость ветра (узлы)
10
Метео видимость
6.21
Явления погоды
DRSN
Условия полета
VFR
Аэропорт подробнее: